Aérodrome d'Arcachon-La Teste-de-Buch

LFCH

July 4, 2022

Time Code Weather Temp. Visibility Ceiling Wind METAR/SPECI
11:30 pm
V
66 °F 6¼ mi+ - 350° 350° 8 kt METAR LFBC 042130Z AUTO 35008KT CAVOK 19/14 Q1022 NOSIG
11:00 pm
V
68 °F 6¼ mi+ - 340° 340° 8 kt METAR LFBC 042100Z AUTO 34008KT CAVOK 20/14 Q1022 NOSIG
10:30 pm
V
68 °F 6¼ mi+ - 340° 340° 8 kt METAR LFBC 042030Z AUTO 34008KT CAVOK 20/14 Q1021 NOSIG
10:00 pm
V
68 °F 6¼ mi+ - 340° 340° 8 kt METAR LFBC 042000Z AUTO 34008KT CAVOK 20/14 Q1021 NOSIG
9:30 pm
V
70 °F 6¼ mi+ - 340° 340° 8 kt METAR LFBC 041930Z AUTO 34008KT CAVOK 21/14 Q1021 NOSIG
9:00 pm
V
70 °F 6¼ mi+ - 340° 340° 8 kt METAR LFBC 041900Z AUTO 34008KT CAVOK 21/14 Q1020 NOSIG
8:30 pm
V
72 °F 6¼ mi+ - 340° 340° 7 kt METAR LFBC 041830Z AUTO 34007KT CAVOK 22/14 Q1020 NOSIG
8:00 pm
V
72 °F 6¼ mi+ - 330° 330° 8 kt METAR LFBC 041800Z AUTO 33008KT CAVOK 22/15 Q1020 NOSIG
7:30 pm
V
72 °F 6¼ mi+ - 320° 320° 8 kt METAR LFBC 041730Z AUTO 32008KT CAVOK 22/15 Q1020 NOSIG
7:00 pm
V
72 °F 6¼ mi+ - 300° 300° 8 kt METAR LFBC 041700Z AUTO 30008KT 270V330 CAVOK 22/16 Q1020 NOSIG
6:30 pm
V
73 °F 6¼ mi+ - 300° 300° 8 kt METAR LFBC 041630Z AUTO 30008KT 270V330 CAVOK 23/15 Q1020
6:00 pm
V
73 °F 6¼ mi+ - 290° 290° 8 kt METAR LFBC 041600Z AUTO 29008KT 250V320 CAVOK 23/16 Q1020 NOSIG
5:30 pm
V
75 °F 6¼ mi+ - 310° 310° 9 kt METAR LFBC 041530Z AUTO 31009KT 260V360 CAVOK 24/16 Q1020 NOSIG
5:00 pm
V
75 °F 6¼ mi+ - 300° 300° 8 kt METAR LFBC 041500Z AUTO 30008KT CAVOK 24/16 Q1020 NOSIG
4:30 pm
V
73 °F 6¼ mi+ - 310° 310° 8 kt METAR LFBC 041430Z AUTO 31008KT 270V340 CAVOK 23/16 Q1021 NOSIG
4:00 pm
V
73 °F 6¼ mi+ - 300° 300° 5 kt METAR LFBC 041400Z AUTO 30005KT 270V350 CAVOK 23/16 Q1021
3:30 pm
V
73 °F 6¼ mi+ - 330° 330° 5 kt METAR LFBC 041330Z AUTO 33005KT 280V020 CAVOK 23/16 Q1021 NOSIG
3:00 pm
V
73 °F 6¼ mi+ 7,600 ft 360° 360° 5 kt METAR LFBC 041300Z AUTO 36005KT 300V040 9999 FEW024 OVC076 23/16 Q1021 NOSIG
2:30 pm
V
73 °F 6¼ mi+ 8,000 ft Var Var 3 kt METAR LFBC 041230Z AUTO VRB03KT 9999 SCT023 SCT070 BKN080 23/17 Q1021 NOSIG
2:00 pm
V
72 °F 6¼ mi+ - 310° 310° 4 kt METAR LFBC 041200Z AUTO 31004KT 280V070 CAVOK 22/17 Q1021 NOSIG
1:30 pm
V
70 °F 6¼ mi+ 6,800 ft 260° 260° 5 kt METAR LFBC 041130Z AUTO 26005KT 9999 FEW016 OVC068 21/17 Q1021 NOSIG
1:00 pm
M
70 °F 6¼ mi+ 1,600 ft 280° 280° 4 kt METAR LFBC 041100Z AUTO 28004KT 210V320 9999 BKN016 OVC068 21/17 Q1021 NOSIG
12:30 pm
M
70 °F 6¼ mi+ 1,500 ft 240° 240° 5 kt METAR LFBC 041030Z AUTO 24005KT 220V280 9999 BKN015 OVC068 21/17 Q1021 NOSIG
12:00 pm
M
70 °F 6¼ mi+ 1,400 ft 260° 260° 3 kt METAR LFBC 041000Z AUTO 26003KT 230V290 9999 BKN014 OVC068 21/17 Q1021 BECMG FEW015 BKN060
11:30 am
V
68 °F 6¼ mi+ 6,800 ft Var Var 3 kt METAR LFBC 040930Z AUTO VRB03KT 9999 SCT013 OVC068 20/17 Q1021 NOSIG
11:00 am
V
70 °F 6¼ mi+ 6,400 ft Var Var 3 kt METAR LFBC 040900Z AUTO VRB03KT 9999 FEW013 OVC064 21/18 Q1021 NOSIG
10:30 am
V
68 °F 6¼ mi+ - Var 000° 0 kt METAR LFBC 040830Z AUTO 00000KT CAVOK 20/16 Q1021 NOSIG
10:00 am
V
68 °F 6¼ mi+ 6,200 ft 340° 340° 4 kt METAR LFBC 040800Z AUTO 34004KT 9999 FEW010 OVC062 20/17 Q1021 NOSIG
9:30 am
V
68 °F 6¼ mi+ - Var Var 3 kt METAR LFBC 040730Z AUTO VRB03KT CAVOK 20/17 Q1020 NOSIG
9:00 am
V
66 °F 6¼ mi+ - Var Var 2 kt METAR LFBC 040700Z AUTO VRB02KT CAVOK 19/17 Q1020 NOSIG
8:30 am
V
66 °F 6¼ mi+ - 230° 230° 2 kt METAR LFBC 040630Z AUTO 23002KT CAVOK 19/18 Q1020 NOSIG
8:00 am
V
64 °F 6¼ mi+ - Var 000° 0 kt METAR LFBC 040600Z AUTO 00000KT CAVOK 18/17 Q1020 NOSIG
7:30 am
V
64 °F 6¼ mi+ - Var 000° 0 kt METAR LFBC 040530Z AUTO 00000KT CAVOK 18/17 Q1020 NOSIG
7:00 am
V
63 °F 6¼ mi+ - Var 000° 0 kt METAR LFBC 040500Z AUTO 00000KT CAVOK 17/17 Q1020 NOSIG
6:30 am
V
63 °F 6¼ mi+ - Var Var 2 kt METAR LFBC 040430Z AUTO VRB02KT CAVOK 17/17 Q1020 NOSIG
6:00 am
V
63 °F 6¼ mi+ - 310° 310° 2 kt METAR LFBC 040400Z AUTO 31002KT CAVOK 17/17 Q1020 NOSIG
5:30 am
V
63 °F 6¼ mi+ - 250° 250° 3 kt METAR LFBC 040330Z AUTO 25003KT CAVOK 17/16 Q1020 NOSIG
5:00 am
V
63 °F 6¼ mi+ - Var Var 2 kt METAR LFBC 040300Z AUTO VRB02KT CAVOK 17/17 Q1020 NOSIG
4:30 am
V
63 °F 6¼ mi+ 11,000 ft 290° 290° 4 kt METAR LFBC 040230Z AUTO 29004KT 9999 FEW039/// BKN110/// BKN160/// //////TCU 17/17 Q1020 BECMG NSC
4:00 am
V
63 °F 6¼ mi+ - 340° 340° 4 kt METAR LFBC 040200Z AUTO 34004KT 300V360 9999 //////CB 17/17 Q1020 TEMPO SHRA BECMG NSC
3:30 am
V
63 °F 6¼ mi+ - Var Var 2 kt METAR LFBC 040130Z AUTO VRB02KT 9999 -RA //////CB 17/17 Q1020 TEMPO SHRA BECMG 35012KT NSC
3:00 am
V
63 °F 6¼ mi+ 13,000 ft Var Var 3 kt METAR LFBC 040100Z AUTO VRB03KT 9999 TS FEW011/// SCT076/// BKN130/// //////CB 17/17 Q1020 TEMPO SHRA
2:30 am
V
63 °F 6¼ mi+ - 260° 260° 4 kt METAR LFBC 040030Z AUTO 26004KT 220V290 9999 -TSRA ///CB 17/16 Q1021 TEMPO SHRA BECMG 35012KT
2:00 am
V
63 °F 6¼ mi+ - Var Var 2 kt METAR LFBC 040000Z AUTO VRB02KT 9999 -RA //////CB 17/16 Q1020 TEMPO SHRA BECMG 35012KT
1:30 am
V
63 °F 6¼ mi+ - 260° 260° 5 kt METAR LFBC 032330Z AUTO 26005KT 230V300 9999 ///CB 17/16 Q1021 TEMPO SHRA
1:00 am
V
63 °F 6¼ mi+ - 360° 360° 4 kt METAR LFBC 032300Z AUTO 36004KT 310V020 9999 ///TCU 17/16 Q1020 TEMPO VRB15G25KT 4000 TSRA SCT050CB
12:30 am
V
63 °F 6¼ mi+ - 340° 340° 5 kt METAR LFBC 032230Z AUTO 34005KT 9999 //////CB 17/15 Q1020 TEMPO VRB15G25KT 4000 TSRA
12:00 am
V
63 °F 6¼ mi+ - 030° 030° 4 kt METAR LFBC 032200Z AUTO 03004KT 9999 ///CB 17/15 Q1020 TEMPO VRB15G25KT 4000 TSRA

July 3, 2022

Time Code Weather Temp. Visibility Ceiling Wind METAR/SPECI
11:30 pm
V
63 °F 6¼ mi+ - 350° 350° 6 kt METAR LFBC 032130Z AUTO 35006KT CAVOK 17/15 Q1020 TEMPO VRB15G25KT 4000 TSRA SCT050CB
11:00 pm
V
63 °F 6¼ mi+ 13,000 ft 010° 010° 6 kt METAR LFBC 032100Z AUTO 01006KT 9999 FEW014/// OVC130/// //////TCU 17/16 Q1020 TEMPO VRB15G25KT 4000 TSRA SCT050CB
10:30 pm
V
63 °F 6¼ mi+ - 360° 360° 6 kt METAR LFBC 032030Z AUTO 36006KT 9999 //////TCU 17/15 Q1020 TEMPO VRB15G25KT 4000 TSRA SCT050CB
10:00 pm
V
64 °F 6¼ mi+ - 350° 350° 12 kt METAR LFBC 032000Z AUTO 35012KT 310V010 9999 ///CB 18/15 Q1020 TEMPO -TSRA
9:30 pm
V
64 °F 6¼ mi+ - 360° 360° 15 kt METAR LFBC 031930Z AUTO 36015KT 9999 -RA //////CB 18/15 Q1020 TEMPO -TSRA BECMG 35005KT
9:00 pm
V
66 °F 6¼ mi+ - 310° 310° 14 kt METAR LFBC 031900Z AUTO 31014KT 9999 VCTS ///CB 19/14 Q1021 NOSIG
8:30 pm
V
66 °F 6¼ mi+ - 340° 340° 13 kt METAR LFBC 031830Z AUTO 34013KT 9999 ///CB 19/14 Q1019 TEMPO -TSRA
8:00 pm
V
68 °F 6¼ mi+ - 340° 340° 11 kt METAR LFBC 031800Z AUTO 34011KT CAVOK 20/14 Q1020 TEMPO -TSRA SCT050CB
7:30 pm
V
72 °F 6¼ mi+ - 330° 330° 10 kt METAR LFBC 031730Z AUTO 33010KT 300V360 CAVOK 22/14 Q1019 TEMPO -TSRA SCT050CB
7:00 pm
V
73 °F 6¼ mi+ - 330° 330° 12 kt METAR LFBC 031700Z AUTO 33012KT 300V360 CAVOK 23/14 Q1019 TEMPO -TSRA SCT050CB
6:30 pm
V
72 °F 6¼ mi+ - 310° 310° 12 kt METAR LFBC 031630Z AUTO 31012KT CAVOK 22/15 Q1019 TEMPO -TSRA SCT050CB
6:00 pm
V
72 °F 6¼ mi+ - 320° 320° 14 kt METAR LFBC 031600Z AUTO 32014KT 280V350 CAVOK 22/15 Q1019 NOSIG
5:30 pm
V
75 °F 6¼ mi+ - 310° 310° 13 kt METAR LFBC 031530Z AUTO 31013KT CAVOK 24/15 Q1019 NOSIG
5:00 pm
V
73 °F 6¼ mi+ - 320° 320° 13 kt METAR LFBC 031500Z AUTO 32013KT CAVOK 23/15 Q1019 NOSIG
4:30 pm
V
75 °F 6¼ mi+ - 330° 330° 12 kt METAR LFBC 031430Z AUTO 33012KT CAVOK 24/15 Q1019 NOSIG
4:00 pm
V
75 °F 6¼ mi+ - 310° 310° 13 kt METAR LFBC 031400Z AUTO 31013KT CAVOK 24/15 Q1019 NOSIG
3:30 pm
V
75 °F 6¼ mi+ - 310° 310° 12 kt METAR LFBC 031330Z AUTO 31012KT CAVOK 24/15 Q1020 NOSIG
3:00 pm
V
75 °F 6¼ mi+ - 310° 310° 11 kt METAR LFBC 031300Z AUTO 31011KT 280V350 CAVOK 24/15 Q1020 NOSIG
2:30 pm
V
75 °F 6¼ mi+ - 310° 310° 11 kt METAR LFBC 031230Z AUTO 31011KT CAVOK 24/15 Q1020 NOSIG
2:00 pm
V
75 °F 6¼ mi+ - 310° 310° 10 kt METAR LFBC 031200Z AUTO 31010KT 270V360 CAVOK 24/15 Q1021 NOSIG
1:30 pm
V
77 °F 6¼ mi+ - 340° 340° 6 kt METAR LFBC 031130Z AUTO 34006KT 240V050 CAVOK 25/13 Q1021 NOSIG
1:00 pm
V
75 °F 6¼ mi+ - 350° 350° 7 kt METAR LFBC 031100Z AUTO 35007KT 290V030 CAVOK 24/14 Q1021 NOSIG
12:30 pm
V
75 °F 6¼ mi+ - Var Var 6 kt METAR LFBC 031030Z AUTO VRB06KT CAVOK 24/11 Q1021 NOSIG
12:00 pm
V
73 °F 6¼ mi+ - 340° 340° 6 kt METAR LFBC 031000Z AUTO 34006KT 300V030 CAVOK 23/11 Q1021 NOSIG
11:30 am
V
72 °F 6¼ mi+ - 360° 360° 7 kt METAR LFBC 030930Z AUTO 36007KT 320V050 CAVOK 22/12 Q1021 NOSIG
11:00 am
V
70 °F 6¼ mi+ - 360° 360° 8 kt METAR LFBC 030900Z AUTO 36008KT 340V040 CAVOK 21/14 Q1021 NOSIG
10:30 am
V
68 °F 6¼ mi+ - 350° 350° 8 kt METAR LFBC 030830Z AUTO 35008KT 300V020 CAVOK 20/14 Q1021 NOSIG
10:00 am
V
68 °F 6¼ mi+ - 360° 360° 10 kt METAR LFBC 030800Z AUTO 36010KT CAVOK 20/14 Q1021 NOSIG
9:30 am
V
66 °F 6¼ mi+ - 350° 350° 10 kt METAR LFBC 030730Z AUTO 35010KT CAVOK 19/14 Q1022 NOSIG
9:00 am
V
66 °F 6¼ mi+ - 010° 010° 10 kt METAR LFBC 030700Z AUTO 01010KT CAVOK 19/14 Q1021 NOSIG
8:30 am
V
64 °F 6¼ mi+ - 010° 010° 10 kt METAR LFBC 030630Z AUTO 01010KT CAVOK 18/14 Q1021 NOSIG
8:00 am
V
63 °F 6¼ mi+ - 350° 350° 3 kt METAR LFBC 030600Z AUTO 35003KT 300V020 CAVOK 17/14 Q1021 NOSIG
7:30 am
V
61 °F 6¼ mi+ - Var Var 3 kt METAR LFBC 030530Z AUTO VRB03KT CAVOK 16/14 Q1021 NOSIG
7:00 am
V
61 °F 6¼ mi+ - 010° 010° 5 kt METAR LFBC 030500Z AUTO 01005KT CAVOK 16/14 Q1021 NOSIG
6:30 am
V
61 °F 6¼ mi+ - 010° 010° 3 kt METAR LFBC 030430Z AUTO 01003KT CAVOK 16/14 Q1021 NOSIG
6:00 am
V
61 °F 6¼ mi+ - 010° 010° 6 kt METAR LFBC 030400Z AUTO 01006KT CAVOK 16/14 Q1020 NOSIG
5:30 am
V
61 °F 6¼ mi+ - 010° 010° 4 kt METAR LFBC 030330Z AUTO 01004KT CAVOK 16/14 Q1020 NOSIG
5:00 am
V
61 °F 6¼ mi+ - 360° 360° 4 kt METAR LFBC 030300Z AUTO 36004KT CAVOK 16/14 Q1020 NOSIG
4:30 am
V
61 °F 6¼ mi+ - 330° 330° 5 kt METAR LFBC 030230Z AUTO 33005KT CAVOK 16/14 Q1021 NOSIG
4:00 am
V
61 °F 6¼ mi+ - 340° 340° 4 kt METAR LFBC 030200Z AUTO 34004KT CAVOK 16/13 Q1021 NOSIG
3:30 am
V
61 °F 6¼ mi+ - 340° 340° 4 kt METAR LFBC 030130Z AUTO 34004KT CAVOK 16/14 Q1021 NOSIG
3:00 am
V
63 °F 6¼ mi+ - 350° 350° 4 kt METAR LFBC 030100Z AUTO 35004KT CAVOK 17/14 Q1021 NOSIG
2:30 am
V
63 °F 6¼ mi+ - 360° 360° 6 kt METAR LFBC 030030Z AUTO 36006KT CAVOK 17/14 Q1021 NOSIG
2:00 am
V
63 °F 6¼ mi+ - 360° 360° 7 kt METAR LFBC 030000Z AUTO 36007KT CAVOK 17/14 Q1021 NOSIG
1:30 am
V
64 °F 6¼ mi+ - 350° 350° 7 kt METAR LFBC 022330Z AUTO 35007KT CAVOK 18/14 Q1021 NOSIG
1:00 am
V
64 °F 6¼ mi+ - 350° 350° 8 kt METAR LFBC 022300Z AUTO 35008KT CAVOK 18/13 Q1021 NOSIG
12:30 am
V
64 °F 6¼ mi+ - 360° 360° 7 kt METAR LFBC 022230Z AUTO 36007KT CAVOK 18/13 Q1021 NOSIG
12:00 am
V
66 °F 6¼ mi+ - 350° 350° 9 kt METAR LFBC 022200Z AUTO 35009KT CAVOK 19/14 Q1021 NOSIG

July 2, 2022

Time Code Weather Temp. Visibility Ceiling Wind METAR/SPECI
11:30 pm
V
66 °F 6¼ mi+ - 340° 340° 9 kt METAR LFBC 022130Z AUTO 34009KT CAVOK 19/14 Q1021 NOSIG
11:00 pm
V
66 °F 6¼ mi+ - 350° 350° 9 kt METAR LFBC 022100Z AUTO 35009KT CAVOK 19/13 Q1020 NOSIG
10:30 pm
V
68 °F 6¼ mi+ - 350° 350° 10 kt METAR LFBC 022030Z AUTO 35010KT CAVOK 20/13 Q1019 NOSIG
10:00 pm
V
68 °F 6¼ mi+ - 340° 340° 10 kt METAR LFBC 022000Z AUTO 34010KT CAVOK 20/13 Q1019 NOSIG
9:30 pm
V
70 °F 6¼ mi+ - 340° 340° 11 kt METAR LFBC 021930Z AUTO 34011KT CAVOK 21/13 Q1019 NOSIG
9:00 pm
V
72 °F 6¼ mi+ - 340° 340° 12 kt METAR LFBC 021900Z AUTO 34012KT CAVOK 22/13 Q1019 NOSIG
8:30 pm
V
73 °F 6¼ mi+ - 340° 340° 12 kt METAR LFBC 021830Z AUTO 34012KT CAVOK 23/14 Q1018 NOSIG
8:00 pm
V
75 °F 6¼ mi+ - 340° 340° 11 kt METAR LFBC 021800Z AUTO 34011KT CAVOK 24/14 Q1018 NOSIG
7:30 pm
V
77 °F 6¼ mi+ - 330° 330° 10 kt METAR LFBC 021730Z AUTO 33010KT CAVOK 25/14 Q1018 NOSIG
7:00 pm
V
79 °F 6¼ mi+ - 330° 330° 11 kt METAR LFBC 021700Z AUTO 33011KT CAVOK 26/14 Q1018 NOSIG
6:30 pm
V
81 °F 6¼ mi+ - 330° 330° 11 kt METAR LFBC 021630Z AUTO 33011KT CAVOK 27/14 Q1018 NOSIG
6:00 pm
V
81 °F 6¼ mi+ - 310° 310° 10 kt METAR LFBC 021600Z AUTO 31010KT CAVOK 27/14 Q1018 NOSIG
5:30 pm
V
81 °F 6¼ mi+ - 320° 320° 10 kt METAR LFBC 021530Z AUTO 32010KT CAVOK 27/14 Q1018 NOSIG
5:00 pm
V
81 °F 6¼ mi+ - 320° 320° 10 kt METAR LFBC 021500Z AUTO 32010KT 290V350 CAVOK 27/13 Q1018 NOSIG
Older data

Download our app

Easy access to all aviation weather on your mobile phone and tablet.
With many features not available on the website, like offline support and a personal airport list.

We and third parties follow your internet behavior on our website with cookies. If you continue, we assume you agree with our cookie policy. Learn more